Time;durP1;ratioP1;P1;durP2;ratioP2;P2;SDS_P1;SDS_P2;PMS_P1;PMS_P2;Temp;Humidity;BMP_temperature;BMP_pressure;BME280_temperature;BME280_humidity;BME280_pressure;Samples;Min_cycle;Max_cycle;Signal;HPM_P1;HPM_P2
2024/02/15 00:00:16;;;;;;;0.10;0.10;;;;;;;13.52;80.06;99703.03;7361359;19;20006;-60
2024/02/15 00:02:44;;;;;;;0.10;0.10;;;;;;;13.59;79.92;99712.28;7359420;19;20121;-61
2024/02/15 00:05:10;;;;;;;0.10;0.10;;;;;;;13.57;80.29;99701.00;7366823;19;20007;-60
2024/02/15 00:07:36;;;;;;;0.10;0.10;;;;;;;13.60;80.16;99715.75;7365711;19;20078;-60
2024/02/15 00:10:03;;;;;;;0.10;0.10;;;;;;;13.59;79.96;99727.19;7364181;19;20015;-60
2024/02/15 00:12:29;;;;;;;0.10;0.10;;;;;;;13.60;80.17;99727.09;7368788;19;20502;-60
2024/02/15 00:14:58;;;;;;;0.10;0.10;;;;;;;13.60;79.88;99729.72;7365040;19;20024;-60
2024/02/15 00:17:29;;;;;;;0.17;0.17;;;;;;;13.58;80.05;99723.69;7365498;19;20417;-60
2024/02/15 00:19:55;;;;;;;0.10;0.10;;;;;;;13.50;79.83;99703.09;7366182;19;20498;-60
2024/02/15 00:22:21;;;;;;;0.10;0.10;;;;;;;13.60;79.78;99718.38;7363313;19;20015;-60
2024/02/15 00:24:48;;;;;;;0.10;0.10;;;;;;;13.59;79.93;99719.31;7366492;19;20104;-60
2024/02/15 00:27:15;;;;;;;0.10;0.10;;;;;;;13.56;79.57;99722.94;7364622;19;20350;-60
2024/02/15 00:29:41;;;;;;;0.10;0.10;;;;;;;13.59;79.90;99728.03;7367489;19;20053;-60
2024/02/15 00:32:07;;;;;;;0.10;0.10;;;;;;;13.58;79.99;99721.06;7360320;19;20422;-60
2024/02/15 00:34:33;;;;;;;0.05;0.05;;;;;;;13.57;80.02;99724.63;7364998;19;20015;-59
2024/02/15 00:36:58;;;;;;;0.10;0.10;;;;;;;13.56;79.98;99722.94;7363901;19;20120;-58
2024/02/15 00:39:24;;;;;;;0.20;0.20;;;;;;;13.57;79.52;99724.63;7366269;19;20617;-60
2024/02/15 00:41:50;;;;;;;0.10;0.10;;;;;;;13.56;79.76;99732.56;7364603;19;20022;-60
2024/02/15 00:44:16;;;;;;;0.10;0.10;;;;;;;13.56;79.88;99736.03;7365433;19;20003;-60
2024/02/15 00:46:41;;;;;;;0.10;0.10;;;;;;;13.57;79.81;99729.03;7366271;19;19994;-60
2024/02/15 00:49:07;;;;;;;0.10;0.10;;;;;;;13.57;79.88;99740.34;7362750;19;20015;-60
2024/02/15 00:51:36;;;;;;;0.10;0.10;;;;;;;13.53;79.58;99733.56;7364660;19;20002;-60
2024/02/15 00:54:02;;;;;;;0.10;0.10;;;;;;;13.56;79.95;99736.03;7363872;19;20006;-60
2024/02/15 00:56:30;;;;;;;0.10;0.10;;;;;;;13.58;79.63;99744.66;7365010;19;20129;-60
2024/02/15 00:58:56;;;;;;;0.10;0.10;;;;;;;13.59;79.65;99738.53;7366634;19;20011;-60
2024/02/15 01:01:22;;;;;;;0.20;0.20;;;;;;;13.57;79.64;99729.88;7366275;19;19999;-60
2024/02/15 01:03:47;;;;;;;0.10;0.10;;;;;;;13.63;79.87;99734.78;7363826;19;20503;-60
2024/02/15 01:06:13;;;;;;;0.10;0.10;;;;;;;13.64;79.60;99735.66;7364338;19;20002;-60
2024/02/15 01:08:38;;;;;;;0.20;0.20;;;;;;;13.66;79.76;99731.19;7365315;19;20007;-60
2024/02/15 01:11:04;;;;;;;0.20;0.20;;;;;;;13.54;79.51;99703.81;7364022;19;20010;-60
2024/02/15 01:13:29;;;;;;;0.20;0.20;;;;;;;13.69;79.49;99728.41;7365813;19;20027;-60
2024/02/15 01:15:55;;;;;;;0.10;0.10;;;;;;;13.70;79.60;99725.69;7364792;19;20018;-60
2024/02/15 01:18:21;;;;;;;0.10;0.10;;;;;;;13.68;79.86;99722.28;7363792;19;20043;-60
2024/02/15 01:20:46;;;;;;;0.10;0.10;;;;;;;13.74;79.41;99737.75;7362809;19;20017;-60
2024/02/15 01:23:12;;;;;;;0.10;0.10;;;;;;;13.76;79.61;99730.63;7366590;19;19998;-60
2024/02/15 01:25:37;;;;;;;0.10;0.10;;;;;;;13.77;79.52;99732.31;7363744;19;20018;-60
2024/02/15 01:28:03;;;;;;;0.10;0.10;;;;;;;13.66;79.78;99716.28;7365132;19;20007;-60
2024/02/15 01:30:29;;;;;;;0.10;0.10;;;;;;;13.79;79.63;99728.75;7362461;19;20106;-60
2024/02/15 01:32:54;;;;;;;0.10;0.10;;;;;;;13.74;79.40;99719.38;7363141;19;20007;-60
2024/02/15 01:35:20;;;;;;;0.10;0.10;;;;;;;13.79;79.58;99728.75;7362730;19;20037;-60
2024/02/15 01:37:46;;;;;;;0.10;0.10;;;;;;;13.80;79.47;99735.72;7361592;19;20062;-60
2024/02/15 01:40:12;;;;;;;0.17;0.17;;;;;;;13.80;79.74;99730.47;7364176;19;20019;-59
2024/02/15 01:42:39;;;;;;;0.10;0.10;;;;;;;13.80;79.32;99720.00;7364553;19;20098;-60
2024/02/15 01:45:05;;;;;;;0.15;0.15;;;;;;;13.82;79.36;99718.13;7365502;19;20098;-60
2024/02/15 01:47:31;;;;;;;0.20;0.20;;;;;;;13.80;79.42;99726.09;7365047;19;20010;-60
2024/02/15 01:49:57;;;;;;;0.10;0.10;;;;;;;13.80;79.15;99720.84;7363902;19;20057;-60
2024/02/15 01:52:23;;;;;;;0.10;0.10;;;;;;;13.75;79.40;99713.19;7364669;19;20027;-60
2024/02/15 01:54:52;;;;;;;0.10;0.10;;;;;;;13.82;79.10;99715.50;7360483;19;20022;-60
2024/02/15 01:57:20;;;;;;;0.10;0.10;;;;;;;13.82;79.60;99718.13;7364872;19;20010;-60
2024/02/15 01:59:46;;;;;;;0.10;0.10;;;;;;;13.77;79.54;99711.31;7363997;19;20011;-60
2024/02/15 02:02:14;;;;;;;0.10;0.10;;;;;;;13.84;79.48;99697.88;7363692;19;20007;-60
2024/02/15 02:04:41;;;;;;;0.13;0.13;;;;;;;13.83;79.30;99720.66;7358473;19;20018;-60
2024/02/15 02:07:07;;;;;;;0.10;0.10;;;;;;;13.85;79.51;99717.97;7362926;19;20011;-60
2024/02/15 02:09:33;;;;;;;0.10;0.10;;;;;;;13.85;79.51;99720.59;7365381;19;20018;-59
2024/02/15 02:11:58;;;;;;;0.17;0.17;;;;;;;13.77;79.33;99711.31;7363616;19;20512;-59
2024/02/15 02:14:24;;;;;;;0.10;0.10;;;;;;;13.82;79.28;99712.88;7362110;19;20431;-60
2024/02/15 02:16:51;;;;;;;0.10;0.10;;;;;;;13.79;79.08;99708.66;7362780;19;20836;-58
2024/02/15 02:19:17;;;;;;;0.10;0.10;;;;;;;13.77;79.50;99703.47;7361266;19;20018;-59
2024/02/15 02:21:44;;;;;;;0.10;0.10;;;;;;;13.72;79.35;99694.97;7366374;19;20017;-61
2024/02/15 02:24:18;;;;;;;0.10;0.10;;;;;;;13.76;79.56;99703.53;7366884;19;20010;-59
2024/02/15 02:26:43;;;;;;;0.10;0.10;;;;;;;13.70;79.69;99696.00;7365847;19;20039;-61
2024/02/15 02:29:10;;;;;;;0.10;0.10;;;;;;;13.57;79.69;99676.56;7366838;19;20011;-60
2024/02/15 02:31:36;;;;;;;0.10;0.10;;;;;;;13.65;80.01;99693.59;7364511;19;20015;-60
2024/02/15 02:34:01;;;;;;;0.15;0.15;;;;;;;13.62;79.87;99687.66;7365101;19;20011;-60
2024/02/15 02:36:29;;;;;;;0.10;0.10;;;;;;;13.49;79.87;99669.94;7364828;19;20362;-59
2024/02/15 02:38:55;;;;;;;0.10;0.10;;;;;;;13.60;80.18;99679.88;7368478;19;20014;-60
2024/02/15 02:41:21;;;;;;;0.10;0.10;;;;;;;13.58;80.24;99694.84;7364755;19;20037;-59
2024/02/15 02:43:46;;;;;;;0.10;0.10;;;;;;;13.57;80.05;99690.50;7365340;19;20881;-59
2024/02/15 02:46:12;;;;;;;0.20;0.20;;;;;;;13.49;80.23;99672.56;7368694;19;20090;-61
2024/02/15 02:48:41;;;;;;;0.10;0.10;;;;;;;13.58;79.84;99679.09;7365667;19;20017;-60
2024/02/15 02:51:07;;;;;;;0.10;0.10;;;;;;;13.51;80.06;99680.34;7364820;19;20009;-60
2024/02/15 02:53:33;;;;;;;0.10;0.10;;;;;;;13.53;80.32;99673.22;7364806;19;20473;-60
2024/02/15 02:55:59;;;;;;;0.10;0.10;;;;;;;13.53;80.55;99675.84;7366090;19;20024;-60
2024/02/15 02:58:24;;;;;;;0.10;0.10;;;;;;;13.52;80.65;99673.31;7361742;19;20010;-59
2024/02/15 03:00:51;;;;;;;0.10;0.10;;;;;;;13.52;80.48;99674.16;7365029;19;20010;-59
2024/02/15 03:03:18;;;;;;;0.20;0.20;;;;;;;13.49;80.27;99659.44;7366890;19;20010;-59
2024/02/15 03:05:44;;;;;;;0.10;0.10;;;;;;;13.48;80.60;99655.13;7363184;19;20489;-59
2024/02/15 03:08:12;;;;;;;0.10;0.10;;;;;;;13.51;80.58;99654.13;7364720;19;20015;-60
2024/02/15 03:10:38;;;;;;;0.10;0.10;;;;;;;13.45;80.95;99643.94;7365408;19;20011;-59
2024/02/15 03:13:04;;;;;;;0.10;0.10;;;;;;;13.52;80.93;99647.09;7361493;19;20760;-59
2024/02/15 03:15:30;;;;;;;0.10;0.10;;;;;;;13.53;81.06;99635.66;7364906;19;20037;-59
2024/02/15 03:17:55;;;;;;;0.10;0.10;;;;;;;13.44;81.14;99619.50;7363560;19;20010;-59
2024/02/15 03:20:21;;;;;;;0.10;0.10;;;;;;;13.52;81.17;99629.56;7361964;19;20451;-59
2024/02/15 03:22:55;;;;;;;0.10;0.10;;;;;;;13.56;80.93;99636.38;7362383;19;20034;-59
2024/02/15 03:25:23;;;;;;;0.10;0.10;;;;;;;13.40;81.30;99609.25;7360707;19;20771;-60
2024/02/15 03:27:52;;;;;;;0.10;0.10;;;;;;;13.54;81.24;99629.53;7365415;19;20352;-59
2024/02/15 03:30:19;;;;;;;0.10;0.10;;;;;;;13.54;81.22;99621.66;7362932;19;20869;-59
2024/02/15 03:32:50;;;;;;;0.10;0.10;;;;;;;13.52;81.04;99624.34;7362218;19;20031;-60
2024/02/15 03:35:17;;;;;;;0.10;0.10;;;;;;;13.53;80.88;99612.91;7361812;19;20457;-59
2024/02/15 03:37:43;;;;;;;0.10;0.10;;;;;;;13.53;81.22;99618.16;7367041;19;20505;-59
2024/02/15 03:40:09;;;;;;;0.10;0.10;;;;;;;13.53;81.17;99612.06;7369492;19;20014;-60
2024/02/15 03:42:38;;;;;;;0.10;0.10;;;;;;;13.52;80.96;99605.97;7369186;19;20011;-59
2024/02/15 03:45:06;;;;;;;0.10;0.10;;;;;;;13.52;81.29;99605.97;7369969;19;20014;-59
2024/02/15 03:47:33;;;;;;;0.10;0.10;;;;;;;13.39;80.89;99583.97;7375538;19;20082;-59
2024/02/15 03:49:59;;;;;;;0.10;0.10;;;;;;;13.52;81.22;99600.72;7372035;19;20023;-59
2024/02/15 03:52:24;;;;;;;0.10;0.10;;;;;;;13.49;81.37;99587.78;7372264;19;20040;-59
2024/02/15 03:54:50;;;;;;;0.20;0.20;;;;;;;13.52;81.03;99598.09;7368725;19;20458;-58
2024/02/15 03:57:17;;;;;;;0.10;0.10;;;;;;;13.51;81.01;99588.53;7371111;19;20026;-59
2024/02/15 03:59:42;;;;;;;0.10;0.10;;;;;;;13.52;81.21;99586.78;7371170;19;20015;-59
2024/02/15 04:02:12;;;;;;;0.10;0.10;;;;;;;13.52;81.41;99585.00;7367952;19;20090;-59
2024/02/15 04:04:42;;;;;;;0.20;0.20;;;;;;;13.53;81.54;99578.81;7371379;19;20011;-59
2024/02/15 04:07:07;;;;;;;0.10;0.10;;;;;;;13.53;81.37;99575.34;7369084;19;20014;-59
2024/02/15 04:32:25;;;;;;;0.10;0.10;;;;;;;13.56;80.93;99538.47;7367916;19;20041;-60
2024/02/15 04:34:52;;;;;;;0.10;0.10;;;;;;;13.26;81.01;99499.00;7371207;19;20496;-60
2024/02/15 04:37:18;;;;;;;0.20;0.20;;;;;;;13.54;81.31;99535.94;7371393;19;20378;-61
2024/02/15 04:39:43;;;;;;;0.10;0.10;;;;;;;13.46;81.24;99522.38;7370815;19;20018;-59
2024/02/15 04:42:11;;;;;;;0.13;0.13;;;;;;;13.52;81.05;99524.66;7368642;19;20015;-60
2024/02/15 04:44:39;;;;;;;0.10;0.10;;;;;;;13.53;81.47;99518.47;7367949;19;20788;-62
2024/02/15 04:47:05;;;;;;;0.10;0.10;;;;;;;13.52;81.07;99529.91;7370943;19;20022;-60
2024/02/15 04:49:32;;;;;;;0.20;0.20;;;;;;;13.50;81.12;99514.28;7370157;19;20006;-61
2024/02/15 04:51:57;;;;;;;0.10;0.10;;;;;;;13.52;81.20;99514.19;7373022;19;20498;-60
2024/02/15 04:54:23;;;;;;;0.17;0.17;;;;;;;13.50;81.43;99518.66;7364597;19;20017;-60
2024/02/15 04:56:52;;;;;;;0.10;0.10;;;;;;;13.51;81.33;99525.59;7371941;19;20022;-58
2024/02/15 04:59:19;;;;;;;0.10;0.10;;;;;;;13.49;81.11;99507.34;7370794;19;20007;-59
2024/02/15 05:01:45;;;;;;;0.10;0.10;;;;;;;13.50;81.36;99511.66;7370947;19;20037;-59
2024/02/15 05:04:11;;;;;;;0.10;0.10;;;;;;;13.50;81.43;99516.03;7368260;19;20569;-60
2024/02/15 05:06:38;;;;;;;0.10;0.10;;;;;;;13.41;81.22;99500.81;7364695;19;20014;-60
2024/02/15 05:09:09;;;;;;;0.20;0.20;;;;;;;13.48;81.29;99516.13;7370766;19;20015;-60
2024/02/15 05:11:38;;;;;;;0.10;0.10;;;;;;;13.43;80.99;99489.31;7369705;19;20018;-60
2024/02/15 05:14:06;;;;;;;0.20;0.20;;;;;;;13.40;80.83;99491.25;7370520;19;20024;-60
2024/02/15 05:16:33;;;;;;;0.20;0.20;;;;;;;13.36;81.02;99484.47;7369406;19;20529;-60
2024/02/15 05:18:58;;;;;;;0.10;0.10;;;;;;;13.41;81.13;99498.19;7370919;19;20629;-58
2024/02/15 05:21:24;;;;;;;0.10;0.10;;;;;;;13.38;80.99;99493.09;7366794;19;20022;-60
2024/02/15 05:23:49;;;;;;;0.10;0.10;;;;;;;13.36;81.23;99484.47;7371606;19;20025;-59
2024/02/15 05:26:22;;;;;;;0.10;0.10;;;;;;;13.35;81.33;99493.25;7370040;19;20090;-59
2024/02/15 05:28:51;;;;;;;0.10;0.10;;;;;;;13.34;81.33;99486.34;7369712;19;20030;-60
2024/02/15 05:31:20;;;;;;;0.10;0.10;;;;;;;13.34;81.24;99475.84;7368039;19;20728;-60
2024/02/15 05:33:49;;;;;;;0.10;0.10;;;;;;;13.21;81.39;99463.38;7368723;19;20014;-57
2024/02/15 05:36:16;;;;;;;0.10;0.10;;;;;;;13.29;81.18;99477.88;7366940;19;20066;-60
2024/02/15 05:38:45;;;;;;;0.10;0.10;;;;;;;13.28;81.57;99481.38;7364562;19;20006;-60
2024/02/15 05:41:11;;;;;;;0.10;0.10;;;;;;;13.05;81.64;99436.25;7368775;19;21243;-60
2024/02/15 05:43:38;;;;;;;0.10;0.10;;;;;;;13.27;81.36;99484.94;7364377;19;21250;-59
2024/02/15 05:46:03;;;;;;;0.10;0.10;;;;;;;13.20;81.46;99477.38;7370994;19;20473;-58
2024/02/15 05:48:29;;;;;;;0.10;0.10;;;;;;;13.24;81.43;99478.94;7367806;19;20002;-57
2024/02/15 05:50:58;;;;;;;0.10;0.10;;;;;;;13.24;81.77;99471.09;7369179;19;20002;-59
2024/02/15 05:53:24;;;;;;;0.10;0.10;;;;;;;13.11;81.62;99458.66;7366813;19;20025;-59
2024/02/15 05:55:50;;;;;;;0.10;0.10;;;;;;;13.22;81.64;99467.69;7367190;19;20042;-60
2024/02/15 05:58:16;;;;;;;0.20;0.20;;;;;;;13.22;81.98;99478.16;7367859;19;20014;-60
2024/02/15 06:00:44;;;;;;;0.10;0.10;;;;;;;13.22;81.80;99462.44;7365318;19;20010;-60
2024/02/15 06:03:11;;;;;;;;;;;;;;;13.28;81.50;99476.16;7369137;19;20509;-59
2024/02/15 06:05:36;;;;;;;0.10;0.10;;;;;;;13.22;81.39;99467.69;7368722;19;19926;-60
2024/02/15 06:08:02;;;;;;;0.10;0.10;;;;;;;13.21;81.42;99460.75;7368015;19;20011;-59
2024/02/15 06:10:29;;;;;;;0.13;0.13;;;;;;;13.21;81.50;99465.13;7366345;19;20086;-59
2024/02/15 06:12:55;;;;;;;0.10;0.10;;;;;;;13.20;81.75;99459.03;7366130;19;20126;-59
2024/02/15 06:15:20;;;;;;;0.10;0.10;;;;;;;13.19;82.06;99454.72;7366648;19;20610;-59
2024/02/15 06:17:46;;;;;;;0.10;0.10;;;;;;;13.18;81.87;99455.66;7363491;19;20078;-60
2024/02/15 06:20:17;;;;;;;0.10;0.10;;;;;;;13.19;81.67;99451.25;7369060;19;20090;-60
2024/02/15 06:22:46;;;;;;;0.10;0.10;;;;;;;13.15;81.88;99441.88;7367224;19;20007;-59
2024/02/15 06:25:20;;;;;;;0.10;0.10;;;;;;;13.17;82.04;99443.47;7367953;19;20051;-59
2024/02/15 06:27:46;;;;;;;0.10;0.10;;;;;;;13.15;82.10;99444.47;7367267;19;20931;-60
2024/02/15 06:41:09;;;;;;;0.10;0.10;;;;;;;13.12;82.17;99429.75;7364811;19;20094;-60
2024/02/15 06:43:35;;;;;;;0.10;0.10;;;;;;;13.18;82.18;99447.78;7363780;19;20074;-61
2024/02/15 06:46:02;;;;;;;0.10;0.10;;;;;;;13.16;81.85;99444.41;7363402;19;20019;-60
2024/02/15 06:48:28;;;;;;;0.10;0.10;;;;;;;13.16;81.68;99433.91;7368339;19;20028;-58
2024/02/15 06:50:54;;;;;;;0.10;0.10;;;;;;;13.16;82.11;99436.53;7361083;19;20009;-58
2024/02/15 06:53:20;;;;;;;0.10;0.10;;;;;;;13.01;81.91;99411.13;7368299;19;20011;-58
2024/02/15 06:55:48;;;;;;;0.10;0.10;;;;;;;13.13;81.93;99436.72;7364611;19;20546;-62
2024/02/15 06:58:15;;;;;;;0.13;0.13;;;;;;;13.12;82.19;99421.88;7361192;19;20022;-60
2024/02/15 07:00:42;;;;;;;0.20;0.20;;;;;;;13.11;81.75;99422.81;7366356;19;20011;-59
2024/02/15 07:03:08;;;;;;;0.10;0.10;;;;;;;13.10;81.92;99415.91;7365652;19;20022;-60
2024/02/15 07:05:33;;;;;;;0.10;0.10;;;;;;;13.10;82.19;99421.13;7366182;19;20018;-59
2024/02/15 07:07:59;;;;;;;0.10;0.10;;;;;;;13.09;82.05;99419.44;7365480;19;20014;-59
2024/02/15 07:10:24;;;;;;;0.10;0.10;;;;;;;13.08;82.19;99428.25;7367620;19;20034;-60
2024/02/15 07:12:50;;;;;;;0.10;0.10;;;;;;;13.09;82.23;99427.31;7363278;19;20744;-59
2024/02/15 07:15:17;;;;;;;0.10;0.10;;;;;;;13.08;82.08;99428.25;7363488;19;20022;-57
2024/02/15 07:17:42;;;;;;;0.13;0.13;;;;;;;12.97;82.02;99414.84;7367720;19;20534;-60
2024/02/15 07:20:10;;;;;;;0.10;0.10;;;;;;;12.97;82.29;99409.59;7363697;19;20116;-60
2024/02/15 07:22:37;;;;;;;0.10;0.10;;;;;;;13.00;82.41;99412.06;7362001;19;20781;-59
2024/02/15 07:25:04;;;;;;;0.10;0.10;;;;;;;13.08;82.00;99423.00;7364770;19;20025;-60
2024/02/15 07:27:29;;;;;;;0.10;0.10;;;;;;;13.06;82.32;99411.75;7365703;19;20613;-60
2024/02/15 07:29:55;;;;;;;0.10;0.10;;;;;;;13.09;82.39;99414.22;7364165;19;20104;-58
2024/02/15 07:32:21;;;;;;;0.13;0.13;;;;;;;13.08;82.35;99402.03;7356981;19;20011;-59
2024/02/15 07:34:47;;;;;;;0.10;0.10;;;;;;;13.09;82.06;99406.34;7361663;19;20032;-59
2024/02/15 07:37:13;;;;;;;0.10;0.10;;;;;;;13.09;82.42;99406.34;7361156;19;20014;-59
2024/02/15 07:39:40;;;;;;;0.10;0.10;;;;;;;13.08;82.52;99412.53;7362728;19;20014;-60
2024/02/15 07:42:06;;;;;;;0.10;0.10;;;;;;;13.05;82.54;99396.94;7360231;19;20018;-58
2024/02/15 07:44:32;;;;;;;0.10;0.10;;;;;;;13.11;82.18;99406.25;7360787;19;20517;-60
2024/02/15 07:47:00;;;;;;;0.10;0.10;;;;;;;13.08;81.95;99396.78;7362429;19;20015;-59
2024/02/15 07:49:26;;;;;;;0.10;0.10;;;;;;;13.07;82.47;99404.72;7359396;19;20040;-59
2024/02/15 07:51:54;;;;;;;0.20;0.20;;;;;;;13.06;82.25;99401.25;7360220;19;20022;-59
2024/02/15 07:54:23;;;;;;;0.15;0.15;;;;;;;13.17;82.51;99414.63;7362386;19;20015;-60
2024/02/15 07:56:49;;;;;;;0.10;0.10;;;;;;;13.18;82.43;99407.63;7362119;19;20014;-60
2024/02/15 07:59:18;;;;;;;0.10;0.10;;;;;;;13.13;82.21;99399.19;7356511;19;20498;-59
2024/02/15 08:01:49;;;;;;;0.10;0.10;;;;;;;13.21;82.22;99418.81;7363318;19;20014;-59
2024/02/15 08:04:17;;;;;;;0.20;0.20;;;;;;;13.23;82.42;99419.59;7360803;19;20015;-57
2024/02/15 08:06:43;;;;;;;0.10;0.10;;;;;;;13.26;82.11;99421.19;7362502;19;20014;-59
2024/02/15 08:09:13;;;;;;;0.10;0.10;;;;;;;13.28;82.24;99414.09;7360913;19;20035;-60
2024/02/15 08:11:41;;;;;;;0.15;0.15;;;;;;;13.31;82.02;99420.94;7360281;19;20053;-60
2024/02/15 08:14:10;;;;;;;0.10;0.10;;;;;;;13.28;81.99;99413.22;7358174;19;20021;-59
2024/02/15 08:16:37;;;;;;;0.10;0.10;;;;;;;13.34;82.15;99420.78;7359034;19;20038;-59
2024/02/15 08:19:05;;;;;;;0.10;0.10;;;;;;;13.37;82.17;99431.09;7362394;19;20023;-61
2024/02/15 08:21:36;;;;;;;0.20;0.20;;;;;;;13.39;82.18;99431.88;7361703;19;20495;-59
2024/02/15 08:24:05;;;;;;;0.10;0.10;;;;;;;13.36;82.25;99416.28;7360365;19;20021;-60
2024/02/15 08:26:41;;;;;;;0.10;0.10;;;;;;;13.45;81.95;99429.75;7364137;19;20637;-60
2024/02/15 08:29:07;;;;;;;0.10;0.10;;;;;;;13.44;81.97;99420.19;7367104;19;20074;-60
2024/02/15 08:31:33;;;;;;;0.10;0.10;;;;;;;13.46;81.77;99417.47;7367598;19;20097;-60
2024/02/15 08:34:00;;;;;;;0.10;0.10;;;;;;;13.48;82.02;99415.59;7367651;19;20049;-60
2024/02/15 08:36:26;;;;;;;0.10;0.10;;;;;;;13.49;81.82;99414.69;7367077;19;20006;-61
2024/02/15 08:38:51;;;;;;;0.10;0.10;;;;;;;13.53;81.94;99413.56;7369942;19;20841;-60
2024/02/15 08:41:20;;;;;;;0.10;0.10;;;;;;;13.55;82.11;99411.72;7369928;19;20006;-60
2024/02/15 08:43:48;;;;;;;0.10;0.10;;;;;;;13.58;82.06;99411.53;7370110;19;20010;-61
2024/02/15 08:46:14;;;;;;;;;;;;;;;13.65;81.80;99409.44;7369578;19;20069;-60
2024/02/15 08:48:40;;;;;;;0.10;0.10;;;;;;;13.62;81.95;99407.81;7369640;19;19935;-60
2024/02/15 08:51:06;;;;;;;0.20;0.20;;;;;;;13.63;81.72;99414.75;7363900;19;20011;-59
2024/02/15 08:53:32;;;;;;;0.10;0.10;;;;;;;13.65;81.62;99410.28;7370730;19;20023;-60
2024/02/15 08:55:57;;;;;;;0.10;0.10;;;;;;;13.67;81.67;99407.56;7371899;19;20086;-60
2024/02/15 08:58:23;;;;;;;0.10;0.10;;;;;;;13.67;81.88;99413.66;7365741;19;20032;-61
2024/02/15 09:00:48;;;;;;;0.10;0.10;;;;;;;13.68;81.88;99412.72;7371118;19;20506;-60
2024/02/15 09:03:14;;;;;;;0.10;0.10;;;;;;;13.69;81.73;99409.19;7368495;19;20070;-60
2024/02/15 09:05:40;;;;;;;0.10;0.10;;;;;;;13.73;81.70;99418.56;7368044;19;20494;-59
2024/02/15 09:08:07;;;;;;;0.10;0.10;;;;;;;13.74;81.40;99412.41;7370982;19;20034;-60
2024/02/15 09:10:32;;;;;;;0.10;0.10;;;;;;;13.79;81.74;99419.16;7370963;19;20371;-59
2024/02/15 09:12:58;;;;;;;0.10;0.10;;;;;;;13.80;81.42;99420.88;7369465;19;20010;-60
2024/02/15 09:15:23;;;;;;;0.20;0.20;;;;;;;13.83;81.46;99428.53;7367114;19;21011;-61
2024/02/15 09:17:49;;;;;;;0.10;0.10;;;;;;;13.84;81.63;99427.59;7369784;19;20036;-60
2024/02/15 09:20:18;;;;;;;0.10;0.10;;;;;;;13.77;81.33;99409.59;7369389;19;20535;-62
2024/02/15 09:22:50;;;;;;;0.10;0.10;;;;;;;13.87;81.50;99430.91;7369304;19;20543;-59
2024/02/15 09:25:16;;;;;;;0.13;0.13;;;;;;;13.89;81.21;99436.06;7365591;19;20022;-60
2024/02/15 09:27:43;;;;;;;0.13;0.13;;;;;;;13.90;81.40;99433.38;7367156;19;20010;-60
2024/02/15 09:30:10;;;;;;;0.10;0.10;;;;;;;13.91;81.48;99439.47;7363311;19;20024;-59
2024/02/15 09:32:39;;;;;;;0.15;0.15;;;;;;;13.95;81.28;99443.63;7369994;19;20014;-59
2024/02/15 09:35:08;;;;;;;0.10;0.10;;;;;;;13.83;81.31;99434.63;7364816;19;20014;-60
2024/02/15 09:37:35;;;;;;;0.10;0.10;;;;;;;13.96;81.78;99445.28;7368816;19;20342;-60
2024/02/15 09:40:06;;;;;;;0.20;0.20;;;;;;;13.96;81.29;99453.16;7367961;19;20726;-59
2024/02/15 09:42:34;;;;;;;0.10;0.10;;;;;;;13.98;81.67;99446.03;7367777;19;20358;-59
2024/02/15 09:45:01;;;;;;;0.10;0.10;;;;;;;14.00;81.35;99438.94;7364491;19;20018;-59
2024/02/15 09:47:31;;;;;;;0.10;0.10;;;;;;;13.97;81.69;99439.94;7369445;19;20014;-59
2024/02/15 09:49:59;;;;;;;0.17;0.17;;;;;;;14.02;81.63;99440.53;7368878;19;20525;-59
2024/02/15 09:52:24;;;;;;;;;;;;;;;14.06;81.55;99443.84;7368756;19;20010;-59
2024/02/15 09:54:52;;;;;;;0.10;0.10;;;;;;;14.02;81.47;99444.94;7366686;19;19925;-59
2024/02/15 09:57:19;;;;;;;0.10;0.10;;;;;;;13.88;81.59;99423.88;7365261;19;20131;-59
2024/02/15 09:59:44;;;;;;;0.10;0.10;;;;;;;14.03;81.62;99438.75;7365605;19;20039;-58
2024/02/15 10:02:10;;;;;;;0.10;0.10;;;;;;;14.03;81.54;99446.63;7367861;19;20010;-59
2024/02/15 10:04:39;;;;;;;0.20;0.20;;;;;;;14.05;81.58;99452.66;7368710;19;20037;-58
2024/02/15 10:07:05;;;;;;;0.10;0.10;;;;;;;14.02;81.73;99453.66;7364456;19;20011;-59
2024/02/15 10:09:31;;;;;;;0.10;0.10;;;;;;;13.99;81.64;99453.00;7368063;19;20038;-58
2024/02/15 10:11:59;;;;;;;0.10;0.10;;;;;;;14.06;81.99;99459.59;7359016;19;20942;-58
2024/02/15 10:14:25;;;;;;;;;;;;;;;14.14;81.71;99467.00;7357715;19;20022;-58
2024/02/15 10:16:55;;;;;;;0.10;0.10;;;;;;;14.10;81.67;99466.38;7365869;19;20004;-59
2024/02/15 10:19:25;;;;;;;0.20;0.20;;;;;;;14.12;81.95;99472.34;7364017;19;20433;-58
2024/02/15 10:21:57;;;;;;;0.10;0.10;;;;;;;14.16;81.84;99471.25;7365383;19;20797;-59
2024/02/15 10:24:27;;;;;;;0.10;0.10;;;;;;;14.13;81.98;99476.66;7360163;19;20022;-59
2024/02/15 10:27:04;;;;;;;0.10;0.10;;;;;;;14.19;81.69;99486.84;7364277;19;20014;-57
2024/02/15 10:29:30;;;;;;;0.10;0.10;;;;;;;14.16;81.91;99481.75;7364900;19;20019;-59
2024/02/15 10:32:00;;;;;;;0.10;0.10;;;;;;;14.21;82.17;99484.97;7363844;19;20035;-59
2024/02/15 10:34:30;;;;;;;0.10;0.10;;;;;;;14.20;81.78;99487.69;7363010;19;20506;-58
2024/02/15 10:37:12;;;;;;;0.20;0.20;;;;;;;14.20;82.13;99475.41;7367087;19;20037;-59
2024/02/15 10:39:37;;;;;;;0.10;0.10;;;;;;;14.23;81.93;99477.84;7366377;19;20029;-58
2024/02/15 10:42:03;;;;;;;0.15;0.15;;;;;;;14.26;82.13;99472.44;7358474;19;20007;-59
2024/02/15 10:44:28;;;;;;;0.10;0.10;;;;;;;14.26;82.19;99472.44;7363650;19;20117;-58
2024/02/15 10:46:54;;;;;;;0.10;0.10;;;;;;;14.28;81.75;99475.78;7359543;19;20358;-57
2024/02/15 10:49:25;;;;;;;0.10;0.10;;;;;;;14.32;82.00;99473.00;7361013;19;20789;-58
2024/02/15 10:52:04;;;;;;;0.10;0.10;;;;;;;14.30;82.31;99461.75;7364441;19;20796;-59
2024/02/15 10:54:52;;;;;;;0.10;0.10;;;;;;;14.38;81.89;99477.91;7363577;19;20021;-59
2024/02/15 10:57:22;;;;;;;0.10;0.10;;;;;;;14.41;82.13;99485.63;7362705;19;20014;-59
2024/02/15 11:00:00;;;;;;;0.10;0.10;;;;;;;14.44;82.15;99483.63;7363648;19;20017;-59
2024/02/15 11:02:31;;;;;;;0.10;0.10;;;;;;;14.45;81.76;99487.97;7361969;19;20014;-59
2024/02/15 11:05:09;;;;;;;0.10;0.10;;;;;;;14.51;82.26;99494.69;7365455;19;20276;-60
2024/02/15 11:07:35;;;;;;;0.20;0.20;;;;;;;14.50;81.95;99506.13;7361262;19;20010;-58
2024/02/15 11:10:07;;;;;;;0.13;0.13;;;;;;;14.51;81.73;99503.41;7364979;19;20403;-59
2024/02/15 11:12:34;;;;;;;0.10;0.10;;;;;;;14.53;81.77;99516.44;7362392;19;20523;-59
2024/02/15 11:14:59;;;;;;;0.10;0.10;;;;;;;14.47;81.85;99495.75;7362223;19;20476;-59
2024/02/15 11:17:56;;;;;;;0.20;0.20;;;;;;;14.60;81.99;99509.91;7360442;19;20002;-58
2024/02/15 11:20:36;;;;;;;0.10;0.10;;;;;;;14.61;81.76;99508.97;7362167;19;20657;-60
2024/02/15 11:23:05;;;;;;;0.20;0.20;;;;;;;14.60;81.93;99506.41;7361626;19;21237;-59
2024/02/15 11:25:35;;;;;;;0.10;0.10;;;;;;;14.64;81.87;99503.53;7359267;19;20012;-59
2024/02/15 11:28:22;;;;;;;0.10;0.10;;;;;;;14.69;81.79;99506.72;7360930;19;20049;-59
2024/02/15 11:30:48;;;;;;;0.20;0.20;;;;;;;14.68;82.02;99515.56;7363812;19;20026;-59
2024/02/15 11:33:36;;;;;;;0.10;0.10;;;;;;;14.74;82.00;99511.72;7358796;19;20015;-57
2024/02/15 11:36:08;;;;;;;0.20;0.20;;;;;;;14.74;81.67;99511.72;7362246;19;20007;-59
2024/02/15 11:38:34;;;;;;;0.10;0.10;;;;;;;14.70;81.96;99497.94;7361611;19;20019;-60
2024/02/15 11:41:06;;;;;;;0.10;0.10;;;;;;;14.72;81.94;99493.41;7362856;19;20082;-59
2024/02/15 11:43:45;;;;;;;0.10;0.10;;;;;;;14.78;81.74;99494.84;7359805;19;20010;-60
2024/02/15 11:46:21;;;;;;;0.20;0.20;;;;;;;14.84;81.98;99488.38;7361989;19;20980;-59
2024/02/15 11:48:47;;;;;;;0.17;0.17;;;;;;;14.77;82.00;99478.22;7361638;19;20067;-59
2024/02/15 11:51:25;;;;;;;0.10;0.10;;;;;;;15.07;82.20;99508.88;7358353;19;20046;-59
2024/02/15 11:54:06;;;;;;;0.10;0.10;;;;;;;15.16;81.89;99505.69;7360419;19;20764;-60
2024/02/15 11:56:50;;;;;;;0.10;0.10;;;;;;;15.20;81.70;99507.19;7361331;19;20014;-59
2024/02/15 11:59:29;;;;;;;0.10;0.10;;;;;;;15.26;81.28;99501.56;7360425;19;20014;-59
2024/02/15 12:18:51;;;;;;;0.10;0.10;;;;;;;15.39;81.02;99511.31;7368687;19;20022;-59
2024/02/15 12:21:22;;;;;;;0.10;0.10;;;;;;;15.42;81.30;99516.41;7367633;19;20029;-59
2024/02/15 12:23:49;;;;;;;0.10;0.10;;;;;;;15.43;81.17;99523.34;7365561;19;20093;-60
2024/02/15 12:26:18;;;;;;;0.13;0.13;;;;;;;15.50;81.24;99516.75;7366513;19;20484;-58